createdAt,value
2023-05-01T00:01:28.845Z,99007.63
2023-05-01T00:03:56.247Z,99006.16
2023-05-01T00:06:23.160Z,98999.59
2023-05-01T00:08:49.951Z,99004.13
2023-05-01T00:11:16.635Z,98994.53
2023-05-01T00:13:43.354Z,98999.94
2023-05-01T00:16:10.490Z,98997.88
2023-05-01T00:18:38.991Z,98990.25
2023-05-01T00:21:05.907Z,98985.16
2023-05-01T00:23:32.574Z,98987.28
2023-05-01T00:25:59.242Z,98983.00
2023-05-01T00:28:25.912Z,98971.63
2023-05-01T00:30:52.696Z,98978.00
2023-05-01T00:33:19.585Z,98974.25
2023-05-01T00:35:47.795Z,98965.25
2023-05-01T00:38:14.611Z,98969.69
2023-05-01T00:40:44.655Z,98962.75
2023-05-01T00:43:12.109Z,98962.72
2023-05-01T00:45:38.932Z,98959.28
2023-05-01T00:48:06.229Z,98963.59
2023-05-01T00:50:33.334Z,98953.31
2023-05-01T00:53:02.180Z,98953.84
2023-05-01T00:55:29.103Z,98952.47
2023-05-01T00:57:56.350Z,98953.84
2023-05-01T01:00:24.802Z,98954.41
2023-05-01T01:02:52.205Z,98943.56
2023-05-01T01:05:21.866Z,98941.34
2023-05-01T01:07:52.009Z,98941.63
2023-05-01T01:10:23.574Z,98937.25
2023-05-01T01:12:55.023Z,98936.25
2023-05-01T01:15:28.343Z,98932.09
2023-05-01T01:17:59.001Z,98934.16
2023-05-01T01:20:31.298Z,98929.88
2023-05-01T01:23:02.198Z,98930.13
2023-05-01T01:25:47.017Z,98922.19
2023-05-01T01:28:34.582Z,98930.72
2023-05-01T01:31:09.578Z,98937.22
2023-05-01T01:33:57.371Z,98931.44
2023-05-01T01:36:31.446Z,98924.47
2023-05-01T01:39:01.160Z,98929.25
2023-05-01T01:41:30.787Z,98933.59
2023-05-01T01:44:01.462Z,98931.50
2023-05-01T01:46:28.844Z,98923.56
2023-05-01T01:48:56.400Z,98924.31
2023-05-01T01:51:25.252Z,98925.75
2023-05-01T01:53:54.210Z,98922.53
2023-05-01T01:56:22.943Z,98917.91
2023-05-01T01:58:51.777Z,98916.22
2023-05-01T02:01:19.741Z,98914.78
2023-05-01T02:03:47.425Z,98913.94
2023-05-01T02:06:15.459Z,98910.34
2023-05-01T02:08:42.754Z,98904.91
2023-05-01T02:11:11.355Z,98910.88
2023-05-01T02:13:39.271Z,98906.78
2023-05-01T02:16:06.836Z,98904.25
2023-05-01T02:18:34.495Z,98910.94
2023-05-01T02:21:01.711Z,98913.94
2023-05-01T02:23:28.633Z,98905.63
2023-05-01T02:25:56.869Z,98902.00
2023-05-01T02:28:27.049Z,98907.13
2023-05-01T02:30:53.845Z,98903.66
2023-05-01T02:33:20.551Z,98905.22
2023-05-01T02:35:47.631Z,98906.03
2023-05-01T02:38:17.056Z,98896.19
2023-05-01T02:40:45.606Z,98898.72
2023-05-01T02:43:13.828Z,98897.50
2023-05-01T02:45:43.040Z,98900.66
2023-05-01T02:48:11.124Z,98899.41
2023-05-01T02:50:40.674Z,98895.31
2023-05-01T02:53:08.265Z,98890.00
2023-05-01T02:55:46.628Z,98890.78
2023-05-01T02:58:17.105Z,98889.75
2023-05-01T03:00:46.060Z,98885.53
2023-05-01T03:03:12.896Z,98886.59
2023-05-01T03:05:39.686Z,98889.06
2023-05-01T03:08:06.846Z,98893.09
2023-05-01T03:10:33.831Z,98886.56
2023-05-01T03:13:01.151Z,98877.00
2023-05-01T03:15:27.791Z,98876.50
2023-05-01T03:17:56.004Z,98882.59
2023-05-01T03:20:22.752Z,98876.72
2023-05-01T03:22:49.964Z,98877.06
2023-05-01T03:25:16.750Z,98868.88
2023-05-01T03:27:43.469Z,98868.28
2023-05-01T03:30:10.730Z,98868.94
2023-05-01T03:32:40.779Z,98866.22
2023-05-01T03:35:15.645Z,98867.25
2023-05-01T03:37:42.459Z,98869.63
2023-05-01T03:40:10.417Z,98867.38
2023-05-01T03:42:55.780Z,98860.41
2023-05-01T03:45:23.791Z,98861.47
2023-05-01T03:47:50.640Z,98861.50
2023-05-01T03:50:19.072Z,98857.84
2023-05-01T03:52:50.589Z,98857.25
2023-05-01T03:55:17.783Z,98862.78
2023-05-01T03:57:47.462Z,98861.28
2023-05-01T04:00:14.349Z,98865.31
2023-05-01T04:02:45.485Z,98863.78
2023-05-01T04:05:18.285Z,98866.78
2023-05-01T04:07:54.411Z,98883.69
2023-05-01T04:10:21.110Z,98873.78
2023-05-01T04:12:56.256Z,98872.94
2023-05-01T04:15:22.977Z,98870.69
2023-05-01T04:17:52.838Z,98871.06
2023-05-01T04:20:20.367Z,98878.69
2023-05-01T04:22:48.126Z,98874.13
2023-05-01T04:25:16.431Z,98873.34
2023-05-01T04:27:44.770Z,98877.16
2023-05-01T04:30:12.772Z,98875.19
2023-05-01T04:32:39.650Z,98883.66
2023-05-01T04:35:06.966Z,98885.59
2023-05-01T04:37:35.579Z,98881.19
2023-05-01T04:40:03.425Z,98883.56
2023-05-01T04:42:32.359Z,98895.53
2023-05-01T04:45:02.747Z,98897.72
2023-05-01T04:47:32.530Z,98892.06
2023-05-01T04:49:59.204Z,98895.25
2023-05-01T04:52:26.411Z,98895.50
2023-05-01T04:54:58.029Z,98902.03
2023-05-01T04:57:27.183Z,98902.84
2023-05-01T04:59:55.612Z,98898.97
2023-05-01T05:02:23.552Z,98899.22
2023-05-01T05:04:51.046Z,98898.63
2023-05-01T05:07:17.832Z,98895.97
2023-05-01T05:10:14.045Z,98895.28
2023-05-01T05:12:45.417Z,98892.19
2023-05-01T05:15:13.552Z,98900.47
2023-05-01T05:17:40.285Z,98896.22
2023-05-01T05:20:08.654Z,98897.66
2023-05-01T05:22:36.225Z,98902.56
2023-05-01T05:25:28.868Z,98906.41
2023-05-01T05:27:55.679Z,98908.34
2023-05-01T05:30:23.692Z,98906.59
2023-05-01T05:32:50.565Z,98902.81
2023-05-01T05:35:17.589Z,98903.34
2023-05-01T05:37:46.088Z,98897.91
2023-05-01T05:40:13.315Z,98889.81
2023-05-01T05:42:51.047Z,98896.69
2023-05-01T05:45:17.900Z,98904.06
2023-05-01T05:47:46.056Z,98897.78
2023-05-01T05:50:12.994Z,98898.75
2023-05-01T05:52:40.453Z,98894.38
2023-05-01T05:55:08.409Z,98907.69
2023-05-01T05:57:37.703Z,98907.84
2023-05-01T06:00:06.950Z,98909.03
2023-05-01T06:02:39.039Z,98909.34
2023-05-01T06:05:10.327Z,98913.00
2023-05-01T06:07:37.754Z,98902.03
2023-05-01T06:10:05.462Z,98905.28
2023-05-01T06:12:33.450Z,98912.00
2023-05-01T06:15:03.096Z,98905.56
2023-05-01T06:17:30.815Z,98907.53
2023-05-01T06:19:57.941Z,98892.03
2023-05-01T06:22:26.254Z,98897.84
2023-05-01T06:25:04.253Z,98899.00
2023-05-01T06:27:31.358Z,98894.69
2023-05-01T06:29:58.187Z,98891.50
2023-05-01T06:32:25.017Z,98901.38
2023-05-01T06:34:52.360Z,98910.13
2023-05-01T06:37:19.374Z,98899.06
2023-05-01T06:39:47.935Z,98894.59
2023-05-01T06:42:16.222Z,98896.00
2023-05-01T06:44:42.882Z,98890.94
2023-05-01T06:47:10.164Z,98898.31
2023-05-01T06:49:37.005Z,98897.56
2023-05-01T06:52:03.830Z,98895.06
2023-05-01T06:54:31.136Z,98898.72
2023-05-01T06:56:59.231Z,98900.28
2023-05-01T06:59:25.845Z,98893.16
2023-05-01T07:01:52.751Z,98899.22
2023-05-01T07:04:19.430Z,98894.69
2023-05-01T07:06:46.104Z,98901.13
2023-05-01T07:09:13.965Z,98891.75
2023-05-01T07:11:40.700Z,98896.38
2023-05-01T07:14:08.744Z,98892.31
2023-05-01T07:16:35.585Z,98901.59
2023-05-01T07:19:02.184Z,98910.31
2023-05-01T07:21:28.831Z,98902.97
2023-05-01T07:23:55.495Z,98904.72
2023-05-01T07:26:22.134Z,98908.56
2023-05-01T07:28:48.809Z,98908.09
2023-05-01T07:31:17.062Z,98907.91
2023-05-01T07:33:44.785Z,98906.34
2023-05-01T07:36:11.886Z,98905.78
2023-05-01T07:38:38.549Z,98920.22
2023-05-01T07:41:05.512Z,98914.38
2023-05-01T07:43:32.152Z,98907.94
2023-05-01T07:46:00.389Z,98915.19
2023-05-01T07:48:28.659Z,98913.66
2023-05-01T07:50:57.021Z,98905.53
2023-05-01T07:53:24.190Z,98904.91
2023-05-01T07:55:51.000Z,98910.22
2023-05-01T07:58:17.763Z,98912.97
2023-05-01T08:00:47.362Z,98918.03
2023-05-01T08:03:14.309Z,98916.34
2023-05-01T08:05:42.720Z,98907.72
2023-05-01T08:08:09.856Z,98908.91
2023-05-01T08:10:36.743Z,98910.09
2023-05-01T08:13:03.675Z,98918.66
2023-05-01T08:15:30.721Z,98912.31
2023-05-01T08:17:57.446Z,98912.41
2023-05-01T08:20:24.234Z,98906.56
2023-05-01T08:22:52.280Z,98910.47
2023-05-01T08:25:19.239Z,98906.03
2023-05-01T08:27:46.069Z,98910.94
2023-05-01T08:30:12.892Z,98911.59
2023-05-01T08:32:39.600Z,98909.13
2023-05-01T08:35:06.614Z,98904.47
2023-05-01T08:37:33.236Z,98906.41
2023-05-01T08:40:03.698Z,98914.47
2023-05-01T08:42:32.262Z,98905.34
2023-05-01T08:44:59.504Z,98907.19
2023-05-01T08:47:26.835Z,98904.53
2023-05-01T08:49:54.519Z,98901.38
2023-05-01T08:52:21.921Z,98909.78
2023-05-01T08:54:50.043Z,98906.06
2023-05-01T08:57:18.273Z,98913.97
2023-05-01T08:59:46.169Z,98902.84
2023-05-01T09:02:15.447Z,98907.56
2023-05-01T09:04:42.193Z,98907.56
2023-05-01T09:07:09.760Z,98914.59
2023-05-01T09:09:37.035Z,98910.47
2023-05-01T09:12:08.878Z,98903.88
2023-05-01T09:14:37.162Z,98910.06
2023-05-01T09:17:03.896Z,98907.38
2023-05-01T09:19:30.558Z,98903.34
2023-05-01T09:21:57.209Z,98897.38
2023-05-01T09:24:25.561Z,98902.66
2023-05-01T09:26:52.462Z,98901.19
2023-05-01T09:29:39.801Z,98902.34
2023-05-01T09:32:17.139Z,98906.34
2023-05-01T09:34:44.810Z,98900.91
2023-05-01T09:37:13.765Z,98904.88
2023-05-01T09:39:40.773Z,98906.94
2023-05-01T09:42:07.736Z,98902.41
2023-05-01T09:44:43.256Z,98900.09
2023-05-01T09:47:10.211Z,98893.56
2023-05-01T09:49:44.744Z,98890.75
2023-05-01T09:52:11.438Z,98909.81
2023-05-01T09:54:38.029Z,98896.47
2023-05-01T09:57:05.097Z,98900.41
2023-05-01T09:59:34.362Z,98902.69
2023-05-01T10:02:02.527Z,98898.97
2023-05-01T10:04:32.795Z,98898.75
2023-05-01T10:07:00.757Z,98901.91
2023-05-01T10:09:28.104Z,98905.72
2023-05-01T10:11:56.241Z,98912.88
2023-05-01T10:14:25.155Z,98901.16
2023-05-01T10:16:54.739Z,98900.59
2023-05-01T10:19:23.156Z,98912.72
2023-05-01T10:21:49.987Z,98905.78
2023-05-01T10:24:17.291Z,98906.28
2023-05-01T10:26:44.866Z,98899.00
2023-05-01T10:29:12.380Z,98899.41
2023-05-01T10:31:41.475Z,98906.78
2023-05-01T10:34:09.297Z,98908.56
2023-05-01T10:36:39.857Z,98905.56
2023-05-01T10:39:07.182Z,98895.22
2023-05-01T10:41:52.693Z,98901.94
2023-05-01T10:44:23.327Z,98899.72
2023-05-01T10:46:50.230Z,98905.59
2023-05-01T10:49:17.230Z,98902.97
2023-05-01T10:52:08.036Z,98902.81
2023-05-01T10:54:36.454Z,98911.47
2023-05-01T10:57:03.336Z,98916.50
2023-05-01T11:00:04.247Z,98911.38
2023-05-01T11:02:31.039Z,98914.91
2023-05-01T11:04:57.903Z,98920.59
2023-05-01T11:07:25.479Z,98915.22
2023-05-01T11:10:01.848Z,98921.00
2023-05-01T11:12:47.412Z,98912.31
2023-05-01T11:15:25.200Z,98915.78
2023-05-01T11:17:52.611Z,98915.19
2023-05-01T11:20:38.128Z,98908.00
2023-05-01T11:23:04.854Z,98900.13
2023-05-01T11:25:33.996Z,98903.50
2023-05-01T11:28:01.929Z,98902.38
2023-05-01T11:30:37.466Z,98900.56
2023-05-01T11:33:05.680Z,98892.34
2023-05-01T11:35:32.965Z,98897.34
2023-05-01T11:37:59.596Z,98897.78
2023-05-01T11:40:26.906Z,98884.81
2023-05-01T11:43:02.301Z,98886.03
2023-05-01T11:45:29.282Z,98882.09
2023-05-01T11:47:56.385Z,98882.66
2023-05-01T11:50:31.796Z,98881.38
2023-05-01T11:52:58.559Z,98882.66
2023-05-01T11:55:31.249Z,98880.69
2023-05-01T11:57:58.014Z,98890.00
2023-05-01T12:00:30.005Z,98888.31
2023-05-01T12:02:58.052Z,98896.13
2023-05-01T12:05:25.004Z,98887.13
2023-05-01T12:07:51.736Z,98893.13
2023-05-01T12:10:18.595Z,98891.88
2023-05-01T12:12:45.456Z,98888.88
2023-05-01T12:15:12.119Z,98882.63
2023-05-01T12:17:40.399Z,98887.06
2023-05-01T12:20:08.740Z,98888.41
2023-05-01T12:22:35.814Z,98886.22
2023-05-01T12:25:03.510Z,98888.78
2023-05-01T12:27:30.384Z,98888.50
2023-05-01T12:29:57.137Z,98893.81
2023-05-01T12:32:29.727Z,98889.03
2023-05-01T12:34:58.047Z,98884.25
2023-05-01T12:37:29.931Z,98886.66
2023-05-01T12:39:57.418Z,98890.53
2023-05-01T12:42:24.151Z,98889.59
2023-05-01T12:44:59.233Z,98891.75
2023-05-01T12:47:26.794Z,98894.47
2023-05-01T12:50:02.442Z,98891.66
2023-05-01T12:52:29.126Z,98888.81
2023-05-01T12:55:01.913Z,98892.22
2023-05-01T12:57:28.715Z,98893.88
2023-05-01T12:59:59.167Z,98897.72
2023-05-01T13:02:29.977Z,98900.84
2023-05-01T13:05:06.811Z,98896.84
2023-05-01T13:07:33.713Z,98897.47
2023-05-01T13:10:00.897Z,98902.50
2023-05-01T13:12:28.322Z,98901.19
2023-05-01T13:14:55.270Z,98904.25
2023-05-01T13:17:22.944Z,98906.13
2023-05-01T13:19:54.461Z,98902.19
2023-05-01T13:22:29.384Z,98903.53
2023-05-01T13:24:56.106Z,98905.28
2023-05-01T13:27:23.752Z,98909.69
2023-05-01T13:29:52.990Z,98924.50
2023-05-01T13:32:19.640Z,98920.16
2023-05-01T13:34:46.514Z,98924.06
2023-05-01T13:37:13.941Z,98924.41
2023-05-01T13:39:42.955Z,98927.94
2023-05-01T13:42:11.421Z,98932.28
2023-05-01T13:44:43.495Z,98929.22
2023-05-01T13:47:11.552Z,98924.91
2023-05-01T13:49:40.535Z,98924.72
2023-05-01T13:52:07.698Z,98927.78
2023-05-01T13:54:39.378Z,98921.63
2023-05-01T13:57:07.413Z,98922.03
2023-05-01T13:59:39.197Z,98926.94
2023-05-01T14:02:13.473Z,98930.69
2023-05-01T14:04:40.911Z,98928.63
2023-05-01T14:07:07.582Z,98921.00
2023-05-01T14:09:35.717Z,98913.56
2023-05-01T14:12:02.420Z,98916.44
2023-05-01T14:14:30.571Z,98917.69
2023-05-01T14:16:57.353Z,98916.25
2023-05-01T14:19:24.518Z,98911.28
2023-05-01T14:21:51.170Z,98912.53
2023-05-01T14:24:18.323Z,98914.50
2023-05-01T14:26:45.644Z,98906.47
2023-05-01T14:29:21.064Z,98907.56
2023-05-01T14:31:49.418Z,98911.94
2023-05-01T14:34:17.602Z,98914.19
2023-05-01T14:36:44.461Z,98917.88
2023-05-01T14:39:11.917Z,98918.25
2023-05-01T14:41:40.692Z,98917.16
2023-05-01T14:44:11.177Z,98913.72
2023-05-01T14:46:43.071Z,98907.19
2023-05-01T14:49:11.675Z,98903.03
2023-05-01T14:51:41.030Z,98898.22
2023-05-01T14:54:09.444Z,98902.06
2023-05-01T14:56:36.045Z,98907.59
2023-05-01T14:59:02.935Z,98917.09
2023-05-01T15:01:29.747Z,98917.72
2023-05-01T15:03:56.672Z,98919.13
2023-05-01T15:06:25.098Z,98924.09
2023-05-01T15:08:51.871Z,98914.59
2023-05-01T15:11:18.846Z,98913.59
2023-05-01T15:13:46.136Z,98903.06
2023-05-01T15:16:12.810Z,98909.03
2023-05-01T15:18:39.473Z,98910.28
2023-05-01T15:21:06.324Z,98917.06
2023-05-01T15:23:34.596Z,98909.66
2023-05-01T15:26:01.702Z,98910.69
2023-05-01T15:28:28.909Z,98906.34
2023-05-01T15:30:56.241Z,98902.25
2023-05-01T15:33:22.921Z,98899.78
2023-05-01T15:35:51.152Z,98904.91
2023-05-01T15:38:17.938Z,98905.94
2023-05-01T15:40:46.207Z,98913.16
2023-05-01T15:43:12.983Z,98904.88
2023-05-01T15:45:43.244Z,98908.00
2023-05-01T15:48:11.204Z,98911.53
2023-05-01T15:50:37.970Z,98923.88
2023-05-01T15:53:04.794Z,98928.59
2023-05-01T15:55:31.559Z,98929.97
2023-05-01T15:57:59.655Z,98933.28
2023-05-01T16:00:26.490Z,98933.44
2023-05-01T16:02:53.385Z,98934.13
2023-05-01T16:05:24.880Z,98940.22
2023-05-01T16:07:53.658Z,98937.53
2023-05-01T16:10:20.604Z,98950.13
2023-05-01T16:12:47.257Z,98949.47
2023-05-01T16:15:15.381Z,98952.72
2023-05-01T16:17:43.684Z,98959.78
2023-05-01T16:20:11.319Z,98966.63
2023-05-01T16:22:38.391Z,98974.44
2023-05-01T16:25:05.991Z,98980.88
2023-05-01T16:27:32.689Z,98981.53
2023-05-01T16:29:59.609Z,98994.44
2023-05-01T16:32:28.002Z,99000.47
2023-05-01T16:34:54.736Z,99011.28
2023-05-01T16:37:22.594Z,99011.03
2023-05-01T16:39:49.600Z,99022.09
2023-05-01T16:42:16.213Z,99027.50
2023-05-01T16:44:42.843Z,99030.31
2023-05-01T16:47:11.497Z,99041.84
2023-05-01T16:49:40.812Z,99060.66
2023-05-01T16:52:07.514Z,99056.19
2023-05-01T16:54:36.202Z,99063.69
2023-05-01T16:57:05.867Z,99060.00
2023-05-01T16:59:32.731Z,99058.53
2023-05-01T17:01:59.432Z,99058.53
2023-05-01T17:04:26.330Z,99056.28
2023-05-01T17:06:56.126Z,99050.25
2023-05-01T17:09:23.033Z,99056.41
2023-05-01T17:11:57.504Z,99041.03
2023-05-01T17:14:24.277Z,99031.56
2023-05-01T17:16:51.037Z,99034.31
2023-05-01T17:19:17.822Z,99028.81
2023-05-01T17:21:44.533Z,99032.31
2023-05-01T17:24:14.080Z,99032.31
2023-05-01T17:26:40.839Z,99022.69
2023-05-01T17:29:07.478Z,99029.91
2023-05-01T17:31:34.516Z,99038.56
2023-05-01T17:34:01.236Z,99039.25
2023-05-01T17:36:29.167Z,99041.91
2023-05-01T17:38:56.306Z,99043.47
2023-05-01T17:41:24.836Z,99042.56
2023-05-01T17:43:51.663Z,99038.53
2023-05-01T17:46:18.592Z,99040.47
2023-05-01T17:48:45.313Z,99031.63
2023-05-01T17:51:14.820Z,99042.56
2023-05-01T17:53:41.579Z,99043.19
2023-05-01T17:56:09.050Z,99041.25
2023-05-01T17:58:37.161Z,99037.44
2023-05-01T18:01:04.733Z,99045.09
2023-05-01T18:03:32.873Z,99044.59
2023-05-01T18:06:01.027Z,99045.59
2023-05-01T18:08:27.685Z,99049.91
2023-05-01T18:10:54.379Z,99041.81
2023-05-01T18:13:27.851Z,99055.78
2023-05-01T18:15:56.209Z,99051.31
2023-05-01T18:18:22.987Z,99059.66
2023-05-01T18:20:49.698Z,99058.31
2023-05-01T18:23:18.376Z,99072.09
2023-05-01T18:25:45.217Z,99077.09
2023-05-01T18:28:12.289Z,99068.47
2023-05-01T18:30:39.005Z,99076.94
2023-05-01T18:33:07.031Z,99071.81
2023-05-01T18:35:33.822Z,99078.75
2023-05-01T18:38:00.468Z,99082.00
2023-05-01T18:40:27.346Z,99078.78
2023-05-01T18:42:54.223Z,99085.53
2023-05-01T18:45:21.108Z,99090.59
2023-05-01T18:47:48.073Z,99093.41
2023-05-01T18:50:21.541Z,99093.34
2023-05-01T18:52:48.738Z,99095.91
2023-05-01T18:55:15.574Z,99102.72
2023-05-01T18:57:43.718Z,99095.56
2023-05-01T19:00:11.057Z,99104.44
2023-05-01T19:02:37.955Z,99106.28
2023-05-01T19:05:05.099Z,99107.28
2023-05-01T19:07:33.171Z,99114.53
2023-05-01T19:10:00.114Z,99123.41
2023-05-01T19:12:27.121Z,99129.63
2023-05-01T19:14:53.869Z,99129.69
2023-05-01T19:17:20.666Z,99132.34
2023-05-01T19:19:47.306Z,99140.06
2023-05-01T19:22:14.056Z,99147.41
2023-05-01T19:24:42.136Z,99144.63
2023-05-01T19:27:08.807Z,99160.81
2023-05-01T19:29:35.446Z,99144.75
2023-05-01T19:32:02.158Z,99156.13
2023-05-01T19:34:29.062Z,99161.34
2023-05-01T19:37:00.233Z,99165.44
2023-05-01T19:39:27.138Z,99162.34
2023-05-01T19:41:55.332Z,99167.44
2023-05-01T19:44:22.197Z,99173.75
2023-05-01T19:46:49.117Z,99173.63
2023-05-01T19:49:15.862Z,99178.03
2023-05-01T19:51:42.508Z,99181.66
2023-05-01T19:54:09.148Z,99191.59
2023-05-01T19:56:35.841Z,99188.09
2023-05-01T19:59:03.904Z,99193.19
2023-05-01T20:01:31.443Z,99196.75
2023-05-01T20:03:58.159Z,99196.88
2023-05-01T20:06:24.972Z,99189.00
2023-05-01T20:08:51.896Z,99206.88
2023-05-01T20:11:18.837Z,99210.22
2023-05-01T20:13:45.961Z,99214.97
2023-05-01T20:16:14.102Z,99211.94
2023-05-01T20:18:40.857Z,99222.22
2023-05-01T20:21:07.911Z,99216.56
2023-05-01T20:23:34.942Z,99220.75
2023-05-01T20:26:01.765Z,99228.16
2023-05-01T20:28:28.584Z,99234.19
2023-05-01T20:30:55.588Z,99230.75
2023-05-01T20:33:23.790Z,99245.38
2023-05-01T20:35:51.405Z,99244.88
2023-05-01T20:38:18.209Z,99245.19
2023-05-01T20:40:44.967Z,99253.94
2023-05-01T20:43:11.915Z,99261.16
2023-05-01T20:45:39.460Z,99258.50
2023-05-01T20:48:06.551Z,99262.53
2023-05-01T20:50:36.009Z,99260.19
2023-05-01T20:53:02.710Z,99263.78
2023-05-01T20:55:29.938Z,99263.09
2023-05-01T20:57:56.628Z,99267.53
2023-05-01T21:00:23.348Z,99266.88
2023-05-01T21:02:51.950Z,99263.38
2023-05-01T21:05:18.781Z,99268.78
2023-05-01T21:07:46.912Z,99268.22
2023-05-01T21:10:16.597Z,99268.22
2023-05-01T21:12:43.538Z,99267.94
2023-05-01T21:15:11.599Z,99266.56
2023-05-01T21:17:39.563Z,99274.91
2023-05-01T21:20:11.146Z,99271.56
2023-05-01T21:22:39.510Z,99274.31
2023-05-01T21:25:08.801Z,99268.63
2023-05-01T21:27:39.195Z,99265.16
2023-05-01T21:30:06.484Z,99260.47
2023-05-01T21:32:34.300Z,99267.41
2023-05-01T21:35:01.249Z,99268.09
2023-05-01T21:37:27.984Z,99274.06
2023-05-01T21:39:54.622Z,99274.34
2023-05-01T21:42:22.713Z,99272.41
2023-05-01T21:44:49.448Z,99277.41
2023-05-01T21:47:16.150Z,99286.69
2023-05-01T21:49:42.884Z,99285.28
2023-05-01T21:52:09.580Z,99297.03
2023-05-01T21:54:36.826Z,99290.22
2023-05-01T21:57:07.545Z,99295.28
2023-05-01T21:59:37.647Z,99295.13
2023-05-01T22:02:04.678Z,99302.69
2023-05-01T22:04:31.554Z,99301.28
2023-05-01T22:06:58.210Z,99298.47
2023-05-01T22:09:24.878Z,99298.34
2023-05-01T22:11:51.556Z,99302.78
2023-05-01T22:14:18.920Z,99302.63
2023-05-01T22:16:47.144Z,99303.47
2023-05-01T22:19:14.034Z,99310.28
2023-05-01T22:21:40.767Z,99311.00
2023-05-01T22:24:07.418Z,99314.00
2023-05-01T22:26:34.641Z,99315.44
2023-05-01T22:29:01.341Z,99326.69
2023-05-01T22:31:28.118Z,99323.06
2023-05-01T22:33:56.616Z,99322.63
2023-05-01T22:36:23.442Z,99323.28
2023-05-01T22:38:50.036Z,99327.53
2023-05-01T22:41:16.705Z,99333.31
2023-05-01T22:43:43.320Z,99335.66
2023-05-01T22:46:10.004Z,99336.38
2023-05-01T22:48:36.749Z,99332.13
2023-05-01T22:51:04.902Z,99344.91
2023-05-01T22:53:31.639Z,99340.72
2023-05-01T22:55:58.301Z,99339.50
2023-05-01T22:58:24.980Z,99341.81
2023-05-01T23:00:51.698Z,99340.59
2023-05-01T23:03:18.478Z,99343.56
2023-05-01T23:05:45.365Z,99336.75
2023-05-01T23:08:13.404Z,99333.94
2023-05-01T23:10:40.730Z,99338.78
2023-05-01T23:13:08.412Z,99347.66
2023-05-01T23:15:36.278Z,99344.78
2023-05-01T23:18:03.299Z,99346.34
2023-05-01T23:20:30.081Z,99347.75
2023-05-01T23:22:57.018Z,99357.13
2023-05-01T23:25:26.134Z,99352.81
2023-05-01T23:27:54.205Z,99352.34
2023-05-01T23:30:21.759Z,99350.22
2023-05-01T23:32:48.958Z,99350.63
2023-05-01T23:35:18.914Z,99351.44
2023-05-01T23:37:45.626Z,99350.31
2023-05-01T23:40:12.495Z,99341.94
2023-05-01T23:42:40.717Z,99347.28
2023-05-01T23:45:08.209Z,99338.53
2023-05-01T23:47:34.996Z,99345.97
2023-05-01T23:50:02.522Z,99339.28
2023-05-01T23:52:29.443Z,99342.69
2023-05-01T23:54:56.161Z,99347.72
2023-05-01T23:57:22.806Z,99355.81
2023-05-01T23:59:51.209Z,99343.66
